Tilon 2 — 9H7860 — position and weather

sailwx.info

Track history (hours):
 
Tides and Currents Weather Stations Pressure Air Temp Water Temp Dewpoint Dewpoint Depression Visibility Wind Speed Wind Dir Waves Ship Positions

Tilon 2

Last reported at 2013-Jul-28 09:33 UTC. Time now 2014-Sep-16 11:27 UTC.
Position N 38°16' E 021°09'.
Warning: this ship's position is years out of date!

Length 32 m.

Type: Pleasure craft. MMSI: 215899000.

Date/timePositionNaut miles runAvg speedWind from/ knotsBaromVisibWave heightAir tempDewpointWater temp
2013-Jul-28 09:33N 38°16' E 021°09'1212.1
2013-Jul-28 08:33N 38°16' E 021°24'9 8.3
2013-Jul-28 07:29N 38°19' E 021°35'2 1.2
2013-Jul-28 06:08N 38°20' E 021°36'0 0.0
2013-Jul-28 05:32N 38°20' E 021°36'0 0.0
2013-Jul-28 03:25N 38°20' E 021°36'0 0.0
2013-Jul-28 02:25N 38°20' E 021°36'0 0.0
2013-Jul-28 01:31N 38°20' E 021°36'0 0.0
2013-Jul-28 00:31N 38°20' E 021°36'0 0.0
2013-Jul-27 23:31N 38°20' E 021°36'0 0.0
2013-Jul-27 22:26N 38°20' E 021°36'0 0.0
2013-Jul-27 21:25N 38°20' E 021°36'0 0.0
2013-Jul-27 20:32N 38°20' E 021°36'0 0.0
2013-Jul-27 19:32N 38°20' E 021°36'0 0.0
2013-Jul-27 18:31N 38°20' E 021°36'1 1.2
2013-Jul-27 17:33N 38°20' E 021°37'6 0.2
2013-Jul-26 06:33N 38°17' E 021°45'2 2.4
2013-Jul-26 05:33N 38°15' E 021°44'0 0.0
2013-Jul-26 04:27N 38°15' E 021°44'0 0.0
2013-Jul-26 03:27N 38°15' E 021°44'0 0.0
2013-Jul-26 02:30N 38°15' E 021°44'0 0.0
2013-Jul-26 01:33N 38°15' E 021°44'0 0.0
2013-Jul-26 00:33N 38°15' E 021°44'0 0.0
2013-Jul-25 23:33N 38°15' E 021°44'0 0.0
2013-Jul-25 22:27N 38°15' E 021°44'0 0.0
2013-Jul-25 21:33N 38°15' E 021°44'0 0.0
2013-Jul-25 20:32N 38°15' E 021°44'0 0.0
2013-Jul-25 19:27N 38°15' E 021°44'0 0.0
2013-Jul-25 18:33N 38°15' E 021°44'0 0.0
2013-Jul-25 17:33N 38°15' E 021°44'0 0.0
2013-Jul-25 16:33N 38°15' E 021°44'0 0.1
2013-Jul-25 15:32N 38°15' E 021°44'5 4.8
2013-Jul-25 14:30N 38°15' E 021°38'1212.3
2013-Jul-25 13:32N 38°14' E 021°23'  
Track history (hours):
 
Tides and Currents Weather Stations Pressure Air Temp Water Temp Dewpoint Dewpoint Depression Visibility Wind Speed Wind Dir Waves Ship Positions

Tilon 2

Last reported at 2013-Jul-28 09:33 UTC. Time now 2014-Sep-16 11:27 UTC.
Position N 38°16' E 021°09'.
Warning: this ship's position is years out of date!

Length 32 m.

Type: Pleasure craft. MMSI: 215899000.

Date/timePositionNaut miles runAvg speedWind from/ knotsBaromVisibWave heightAir tempDewpointWater temp
2013-Jul-28 09:33N 38°16' E 021°09'1212.1
2013-Jul-28 08:33N 38°16' E 021°24'9 8.3
2013-Jul-28 07:29N 38°19' E 021°35'2 1.2
2013-Jul-28 06:08N 38°20' E 021°36'0 0.0
2013-Jul-28 05:32N 38°20' E 021°36'0 0.0
2013-Jul-28 03:25N 38°20' E 021°36'0 0.0
2013-Jul-28 02:25N 38°20' E 021°36'0 0.0
2013-Jul-28 01:31N 38°20' E 021°36'0 0.0
2013-Jul-28 00:31N 38°20' E 021°36'0 0.0
2013-Jul-27 23:31N 38°20' E 021°36'0 0.0
2013-Jul-27 22:26N 38°20' E 021°36'0 0.0
2013-Jul-27 21:25N 38°20' E 021°36'0 0.0
2013-Jul-27 20:32N 38°20' E 021°36'0 0.0
2013-Jul-27 19:32N 38°20' E 021°36'0 0.0
2013-Jul-27 18:31N 38°20' E 021°36'1 1.2
2013-Jul-27 17:33N 38°20' E 021°37'6 0.2
2013-Jul-26 06:33N 38°17' E 021°45'2 2.4
2013-Jul-26 05:33N 38°15' E 021°44'0 0.0
2013-Jul-26 04:27N 38°15' E 021°44'0 0.0
2013-Jul-26 03:27N 38°15' E 021°44'0 0.0
2013-Jul-26 02:30N 38°15' E 021°44'0 0.0
2013-Jul-26 01:33N 38°15' E 021°44'0 0.0
2013-Jul-26 00:33N 38°15' E 021°44'0 0.0
2013-Jul-25 23:33N 38°15' E 021°44'0 0.0
2013-Jul-25 22:27N 38°15' E 021°44'0 0.0
2013-Jul-25 21:33N 38°15' E 021°44'0 0.0
2013-Jul-25 20:32N 38°15' E 021°44'0 0.0
2013-Jul-25 19:27N 38°15' E 021°44'0 0.0
2013-Jul-25 18:33N 38°15' E 021°44'0 0.0
2013-Jul-25 17:33N 38°15' E 021°44'0 0.0
2013-Jul-25 16:33N 38°15' E 021°44'0 0.1
2013-Jul-25 15:32N 38°15' E 021°44'5 4.8
2013-Jul-25 14:30N 38°15' E 021°38'1212.3
2013-Jul-25 13:32N 38°14' E 021°23'  

Dump ship's entire track history